Terminal Aerodrome Forecast
Issued by NWS

Home | Current Version | Previous Version | Graphics & Text | Print | Product List | Glossary On
Versions: 1 2 3 4 5 6 7 8 9 10 11 12 13 14 15 16 17 18 19 20 21 22 23 24 25 26
000
FTUS43 KABR 311800 AAA
TAFPIR
TAF AMD
KPIR 311803Z 3118/0118 08015KT 5SM BR OVC006
     FM312100 06018KT 4SM BR OVC015
     FM010300 03018G23KT 2SM -SN OVC015
     FM011500 34014KT 5SM BR OVC025
     FM011700 34012KT P6SM SKC=

USA.gov is the U.S. government's official web portal to all federal, state and local government web resources and services.